createdAt,value
2022-11-24T00:01:15.912Z,3.30
2022-11-24T00:03:46.856Z,3.30
2022-11-24T00:06:16.142Z,3.30
2022-11-24T00:08:49.192Z,3.20
2022-11-24T00:11:19.295Z,3.30
2022-11-24T00:13:49.445Z,3.30
2022-11-24T00:16:22.300Z,3.20
2022-11-24T00:18:50.829Z,3.20
2022-11-24T00:21:21.434Z,3.20
2022-11-24T00:23:52.208Z,3.20
2022-11-24T00:26:27.353Z,3.30
2022-11-24T00:28:56.779Z,3.30
2022-11-24T00:31:26.747Z,3.30
2022-11-24T00:33:58.540Z,3.20
2022-11-24T00:36:30.529Z,3.20
2022-11-24T00:39:02.401Z,3.30
2022-11-24T00:41:32.613Z,3.20
2022-11-24T00:44:00.300Z,3.30
2022-11-24T00:46:28.332Z,3.30
2022-11-24T00:48:55.911Z,3.30
2022-11-24T00:51:27.587Z,3.30
2022-11-24T00:53:54.979Z,3.30
2022-11-24T00:56:22.537Z,3.30
2022-11-24T00:58:49.759Z,3.20
2022-11-24T01:01:23.340Z,3.20
2022-11-24T01:03:51.381Z,3.20
2022-11-24T01:06:24.743Z,3.30
2022-11-24T01:08:52.355Z,3.20
2022-11-24T01:11:24.516Z,3.20
2022-11-24T01:13:57.430Z,3.20
2022-11-24T01:16:34.350Z,3.20
2022-11-24T01:19:03.989Z,3.10
2022-11-24T01:21:31.369Z,3.10
2022-11-24T01:23:58.428Z,3.10
2022-11-24T01:26:28.594Z,3.10
2022-11-24T01:28:57.585Z,3.00
2022-11-24T01:31:28.165Z,3.00
2022-11-24T01:33:55.851Z,3.10
2022-11-24T01:36:23.336Z,3.10
2022-11-24T01:38:50.617Z,3.10
2022-11-24T01:41:21.284Z,3.10
2022-11-24T01:43:49.273Z,3.10
2022-11-24T01:46:37.803Z,3.10
2022-11-24T01:49:20.840Z,3.10
2022-11-24T01:52:01.032Z,3.00
2022-11-24T01:54:36.010Z,3.00
2022-11-24T01:57:12.180Z,3.00
2022-11-24T01:59:39.391Z,3.00
2022-11-24T02:02:07.771Z,3.00
2022-11-24T02:04:36.222Z,3.00
2022-11-24T02:07:08.777Z,3.00
2022-11-24T02:09:55.798Z,3.00
2022-11-24T02:12:27.072Z,3.00
2022-11-24T02:14:55.879Z,3.00
2022-11-24T02:17:25.820Z,2.90
2022-11-24T02:20:01.083Z,2.90
2022-11-24T02:22:48.288Z,2.80
2022-11-24T02:25:23.810Z,2.80
2022-11-24T02:27:54.113Z,2.80
2022-11-24T02:30:26.532Z,2.80
2022-11-24T02:32:54.424Z,2.80
2022-11-24T02:35:26.097Z,2.70
2022-11-24T02:37:55.824Z,2.70
2022-11-24T02:40:26.471Z,2.70
2022-11-24T02:43:04.784Z,2.70
2022-11-24T02:45:32.027Z,2.70
2022-11-24T02:47:59.501Z,2.70
2022-11-24T02:50:26.756Z,2.70
2022-11-24T02:52:56.618Z,2.70
2022-11-24T02:55:23.751Z,2.80
2022-11-24T02:57:53.451Z,2.80
2022-11-24T03:00:23.489Z,2.80
2022-11-24T03:02:51.173Z,2.80
2022-11-24T03:05:18.672Z,2.80
2022-11-24T03:07:46.100Z,2.80
2022-11-24T03:10:15.944Z,2.90
2022-11-24T03:12:43.440Z,2.80
2022-11-24T03:15:11.179Z,2.80
2022-11-24T03:17:38.698Z,2.80
2022-11-24T03:20:06.237Z,2.80
2022-11-24T03:22:37.073Z,2.80
2022-11-24T03:25:07.013Z,2.80
2022-11-24T03:27:34.440Z,2.80
2022-11-24T03:30:01.576Z,2.80
2022-11-24T03:32:29.217Z,2.80
2022-11-24T03:34:58.859Z,2.80
2022-11-24T03:37:28.470Z,2.70
2022-11-24T03:39:55.801Z,2.80
2022-11-24T03:42:23.406Z,2.80
2022-11-24T03:44:50.447Z,2.70
2022-11-24T03:47:20.460Z,2.80
2022-11-24T03:49:47.542Z,2.80
2022-11-24T03:52:14.930Z,2.80
2022-11-24T03:54:42.129Z,2.80
2022-11-24T03:57:11.776Z,2.90
2022-11-24T03:59:38.891Z,2.80
2022-11-24T04:02:06.901Z,2.90
2022-11-24T04:04:34.956Z,2.90
2022-11-24T04:07:02.606Z,3.00
2022-11-24T04:09:29.768Z,3.00
2022-11-24T04:11:59.395Z,3.00
2022-11-24T04:14:26.502Z,3.00
2022-11-24T04:16:54.066Z,3.00
2022-11-24T04:19:21.156Z,3.00
2022-11-24T04:21:48.569Z,3.00
2022-11-24T04:24:18.728Z,3.10
2022-11-24T04:26:46.191Z,3.10
2022-11-24T04:29:13.446Z,3.10
2022-11-24T04:31:43.509Z,3.10
2022-11-24T04:34:11.578Z,3.20
2022-11-24T04:36:38.959Z,3.20
2022-11-24T04:39:23.589Z,3.20
2022-11-24T04:41:53.641Z,3.20
2022-11-24T04:44:23.157Z,3.20
2022-11-24T04:46:50.631Z,3.20
2022-11-24T04:49:18.021Z,3.20
2022-11-24T04:51:45.518Z,3.20
2022-11-24T04:54:13.629Z,3.20
2022-11-24T04:56:42.782Z,3.10
2022-11-24T04:59:19.167Z,3.10
2022-11-24T05:01:47.311Z,3.10
2022-11-24T05:04:18.101Z,3.10
2022-11-24T05:06:48.051Z,3.20
2022-11-24T05:09:18.154Z,3.20
2022-11-24T05:11:45.787Z,3.20
2022-11-24T05:14:12.845Z,3.30
2022-11-24T05:16:40.255Z,3.30
2022-11-24T05:19:07.559Z,3.30
2022-11-24T05:21:37.362Z,3.40
2022-11-24T05:24:04.721Z,3.40
2022-11-24T05:26:32.288Z,3.40
2022-11-24T05:28:59.428Z,3.50
2022-11-24T05:31:29.203Z,3.50
2022-11-24T05:33:56.421Z,3.50
2022-11-24T05:36:23.850Z,3.50
2022-11-24T05:38:53.403Z,3.60
2022-11-24T05:41:20.931Z,3.60
2022-11-24T05:43:50.247Z,3.60
2022-11-24T05:46:20.004Z,3.70
2022-11-24T05:48:49.400Z,3.60
2022-11-24T05:51:16.843Z,3.70
2022-11-24T05:53:44.003Z,3.70
2022-11-24T05:56:11.327Z,3.70
2022-11-24T05:58:40.823Z,3.70
2022-11-24T06:01:08.423Z,3.70
2022-11-24T06:03:39.958Z,3.70
2022-11-24T06:06:07.628Z,3.60
2022-11-24T06:08:34.695Z,3.60
2022-11-24T06:11:02.741Z,3.60
2022-11-24T06:13:29.798Z,3.60
2022-11-24T06:15:59.420Z,3.60
2022-11-24T06:18:26.633Z,3.70
2022-11-24T06:21:10.220Z,3.70
2022-11-24T06:23:38.036Z,3.70
2022-11-24T06:26:08.346Z,3.80
2022-11-24T06:28:36.054Z,3.90
2022-11-24T06:31:04.872Z,3.90
2022-11-24T06:33:36.697Z,3.90
2022-11-24T06:36:09.921Z,3.90
2022-11-24T06:38:37.169Z,3.90
2022-11-24T06:41:07.170Z,3.90
2022-11-24T06:43:35.667Z,3.90
2022-11-24T06:46:03.820Z,3.90
2022-11-24T06:48:31.602Z,4.00
2022-11-24T06:51:03.766Z,4.00
2022-11-24T06:53:35.768Z,4.10
2022-11-24T06:56:04.776Z,4.20
2022-11-24T06:58:31.960Z,4.20
2022-11-24T07:00:59.644Z,4.30
2022-11-24T07:03:27.133Z,4.30
2022-11-24T07:05:58.832Z,4.30
2022-11-24T07:08:30.766Z,4.40
2022-11-24T07:11:05.112Z,4.40
2022-11-24T07:13:32.516Z,4.50
2022-11-24T07:16:00.816Z,4.60
2022-11-24T07:18:27.924Z,4.70
2022-11-24T07:20:57.720Z,4.80
2022-11-24T07:23:24.765Z,4.90
2022-11-24T07:25:54.256Z,5.00
2022-11-24T07:28:21.405Z,5.00
2022-11-24T07:30:48.757Z,5.10
2022-11-24T07:33:15.857Z,5.10
2022-11-24T07:35:43.403Z,5.10
2022-11-24T07:38:10.473Z,5.20
2022-11-24T07:40:37.850Z,5.20
2022-11-24T07:43:07.335Z,5.30
2022-11-24T07:45:34.760Z,5.30
2022-11-24T07:48:01.777Z,5.30
2022-11-24T07:50:29.328Z,5.30
2022-11-24T07:53:00.627Z,5.30
2022-11-24T07:55:30.607Z,5.30
2022-11-24T07:58:01.531Z,5.30
2022-11-24T08:00:28.992Z,5.30
2022-11-24T08:02:58.793Z,5.20
2022-11-24T08:05:26.608Z,5.20
2022-11-24T08:07:53.685Z,5.20
2022-11-24T08:10:23.515Z,5.20
2022-11-24T08:12:50.717Z,5.20
2022-11-24T08:15:20.427Z,5.20
2022-11-24T08:17:47.631Z,5.20
2022-11-24T08:20:17.596Z,5.20
2022-11-24T08:22:44.750Z,5.20
2022-11-24T08:25:12.221Z,5.20
2022-11-24T08:27:39.576Z,5.30
2022-11-24T08:30:07.953Z,5.40
2022-11-24T08:32:35.047Z,5.40
2022-11-24T08:35:19.928Z,5.40
2022-11-24T08:37:46.998Z,5.50
2022-11-24T08:40:17.136Z,5.60
2022-11-24T08:42:44.152Z,5.60
2022-11-24T08:45:20.927Z,5.70
2022-11-24T08:47:52.767Z,5.70
2022-11-24T08:50:23.675Z,5.90
2022-11-24T08:52:54.772Z,6.00
2022-11-24T08:55:22.147Z,6.10
2022-11-24T08:57:50.107Z,6.20
2022-11-24T09:00:17.732Z,6.30
2022-11-24T09:02:44.823Z,6.30
2022-11-24T09:05:43.558Z,6.30
2022-11-24T09:08:02.616Z,6.30
2022-11-24T09:10:30.023Z,6.30
2022-11-24T09:12:57.045Z,6.20
2022-11-24T09:15:24.539Z,6.20
2022-11-24T09:17:53.879Z,6.20
2022-11-24T09:20:21.249Z,6.20
2022-11-24T09:22:48.566Z,6.20
2022-11-24T09:25:15.912Z,6.20
2022-11-24T09:27:42.891Z,6.20
2022-11-24T09:30:10.832Z,6.20
2022-11-24T09:32:37.932Z,6.20
2022-11-24T09:35:07.941Z,6.20
2022-11-24T09:37:37.497Z,6.20
2022-11-24T09:40:08.037Z,6.30
2022-11-24T09:43:06.766Z,6.30
2022-11-24T09:46:06.662Z,6.40
2022-11-24T09:48:39.249Z,6.50
2022-11-24T09:51:11.906Z,6.50
2022-11-24T09:54:13.373Z,6.50
2022-11-24T09:56:42.771Z,6.60
2022-11-24T09:59:24.049Z,6.60
2022-11-24T10:01:52.538Z,6.70
2022-11-24T10:04:21.687Z,6.70
2022-11-24T10:07:11.529Z,6.70
2022-11-24T10:09:59.652Z,6.80
2022-11-24T10:12:54.124Z,6.90
2022-11-24T10:16:03.600Z,6.90
2022-11-24T10:18:38.114Z,6.90
2022-11-24T10:21:05.128Z,7.00
2022-11-24T10:23:50.475Z,7.00
2022-11-24T10:26:26.357Z,7.00
2022-11-24T10:28:56.256Z,7.10
2022-11-24T10:31:28.774Z,7.10
2022-11-24T10:34:03.484Z,7.10
2022-11-24T10:36:54.313Z,7.20
2022-11-24T10:39:58.576Z,7.20
2022-11-24T10:42:36.134Z,7.20
2022-11-24T10:45:14.065Z,7.30
2022-11-24T10:47:44.788Z,7.30
2022-11-24T10:50:25.343Z,7.30
2022-11-24T10:53:11.939Z,7.30
2022-11-24T10:55:54.742Z,7.30
2022-11-24T10:58:37.631Z,7.30
2022-11-24T11:01:15.013Z,7.20
2022-11-24T11:03:52.710Z,7.20
2022-11-24T11:06:32.280Z,7.20
2022-11-24T11:09:22.600Z,7.20
2022-11-24T11:11:53.672Z,7.20
2022-11-24T11:14:34.645Z,7.30
2022-11-24T11:17:03.001Z,7.30
2022-11-24T11:19:49.981Z,7.30
2022-11-24T11:22:32.386Z,7.40
2022-11-24T11:25:11.127Z,7.40
2022-11-24T11:27:40.375Z,7.40
2022-11-24T11:35:53.794Z,7.70
2022-11-24T11:38:24.150Z,7.70
2022-11-24T11:40:54.210Z,7.80
2022-11-24T11:43:26.882Z,7.80
2022-11-24T11:46:28.492Z,7.80
2022-11-24T11:48:56.033Z,7.80
2022-11-24T11:51:36.314Z,7.80
2022-11-24T11:54:12.740Z,7.70
2022-11-24T11:56:45.665Z,7.70
2022-11-24T11:59:49.020Z,7.70
2022-11-24T12:02:24.758Z,7.60
2022-11-24T12:04:52.349Z,7.70
2022-11-24T12:07:47.391Z,7.70
2022-11-24T12:10:30.589Z,7.70
2022-11-24T12:13:27.129Z,7.80
2022-11-24T12:15:59.459Z,7.80
2022-11-24T12:18:57.110Z,7.80
2022-11-24T12:21:44.463Z,7.90
2022-11-24T12:24:21.875Z,8.00
2022-11-24T12:27:04.175Z,8.00
2022-11-24T12:29:40.356Z,8.00
2022-11-24T12:32:10.889Z,8.00
2022-11-24T12:34:58.993Z,7.90
2022-11-24T12:37:29.586Z,7.90
2022-11-24T12:40:31.836Z,7.90
2022-11-24T12:43:18.508Z,7.80
2022-11-24T12:46:17.433Z,7.80
2022-11-24T12:49:12.668Z,7.70
2022-11-24T12:51:44.141Z,7.80
2022-11-24T12:54:15.617Z,7.80
2022-11-24T12:57:00.555Z,7.70
2022-11-24T12:59:38.686Z,7.80
2022-11-24T13:02:12.058Z,7.80
2022-11-24T13:05:16.092Z,7.80
2022-11-24T13:07:49.170Z,7.80
2022-11-24T13:10:53.684Z,7.70
2022-11-24T13:13:15.256Z,7.70
2022-11-24T13:16:20.590Z,7.70
2022-11-24T13:18:59.000Z,7.60
2022-11-24T13:21:41.856Z,7.60
2022-11-24T13:24:19.470Z,7.50
2022-11-24T13:27:13.587Z,7.40
2022-11-24T13:29:51.127Z,7.40
2022-11-24T13:32:39.458Z,7.30
2022-11-24T13:35:14.735Z,7.30
2022-11-24T13:37:42.138Z,7.20
2022-11-24T13:40:12.338Z,7.20
2022-11-24T13:42:55.195Z,7.20
2022-11-24T13:45:41.633Z,7.10
2022-11-24T13:48:22.358Z,7.10
2022-11-24T13:50:50.145Z,7.10
2022-11-24T13:53:36.546Z,7.00
2022-11-24T13:56:24.660Z,7.00
2022-11-24T13:58:54.014Z,6.90
2022-11-24T14:01:25.751Z,7.00
2022-11-24T14:04:28.672Z,6.90
2022-11-24T14:06:52.399Z,6.80
2022-11-24T14:09:45.903Z,6.80
2022-11-24T14:12:15.738Z,6.90
2022-11-24T14:14:44.521Z,6.90
2022-11-24T14:17:17.777Z,6.80
2022-11-24T14:19:46.389Z,6.80
2022-11-24T14:22:16.403Z,6.70
2022-11-24T14:24:44.224Z,6.80
2022-11-24T14:27:16.688Z,6.70
2022-11-24T14:30:02.369Z,6.70
2022-11-24T14:32:29.829Z,6.60
2022-11-24T14:34:59.920Z,6.50
2022-11-24T14:37:30.590Z,6.40
2022-11-24T14:39:57.981Z,6.30
2022-11-24T14:42:27.032Z,6.30
2022-11-24T14:45:01.466Z,6.20
2022-11-24T14:47:37.351Z,6.10
2022-11-24T14:50:09.493Z,6.00
2022-11-24T14:52:42.404Z,5.90
2022-11-24T14:55:34.968Z,5.80
2022-11-24T14:58:01.996Z,5.70
2022-11-24T15:00:35.288Z,5.70
2022-11-24T15:03:02.334Z,5.60
2022-11-24T15:05:52.560Z,5.50
2022-11-24T15:08:26.340Z,5.40
2022-11-24T15:11:02.650Z,5.40
2022-11-24T15:13:39.951Z,5.30
2022-11-24T15:16:15.860Z,5.20
2022-11-24T15:18:45.719Z,5.10
2022-11-24T15:21:19.141Z,5.00
2022-11-24T15:24:19.779Z,4.90
2022-11-24T15:26:47.291Z,4.90
2022-11-24T15:29:14.450Z,4.90
2022-11-24T15:31:49.383Z,4.90
2022-11-24T15:34:19.819Z,4.90
2022-11-24T15:36:49.378Z,4.80
2022-11-24T15:39:16.533Z,4.80
2022-11-24T15:41:44.131Z,4.80
2022-11-24T15:44:11.184Z,4.80
2022-11-24T15:46:38.687Z,4.80
2022-11-24T15:49:06.381Z,4.80
2022-11-24T15:51:40.143Z,4.80
2022-11-24T15:54:13.645Z,4.80
2022-11-24T15:56:41.177Z,4.80
2022-11-24T15:59:18.792Z,4.80
2022-11-24T16:01:53.497Z,4.80
2022-11-24T16:04:23.299Z,4.80
2022-11-24T16:06:50.639Z,4.80
2022-11-24T16:09:17.858Z,4.70
2022-11-24T16:11:45.349Z,4.80
2022-11-24T16:14:12.455Z,4.80
2022-11-24T16:16:42.451Z,4.80
2022-11-24T16:19:10.769Z,4.80
2022-11-24T16:21:38.046Z,4.90
2022-11-24T16:24:05.272Z,4.80
2022-11-24T16:26:35.194Z,4.80
2022-11-24T16:29:02.253Z,4.80
2022-11-24T16:31:29.933Z,4.90
2022-11-24T16:33:57.274Z,4.90
2022-11-24T16:36:24.869Z,4.90
2022-11-24T16:38:52.018Z,5.00
2022-11-24T16:41:19.575Z,5.00
2022-11-24T16:43:46.620Z,5.10
2022-11-24T16:46:24.402Z,5.10
2022-11-24T16:48:57.256Z,5.10
2022-11-24T16:51:32.991Z,5.10
2022-11-24T16:54:04.879Z,5.10
2022-11-24T16:56:34.553Z,5.10
2022-11-24T16:59:04.294Z,5.00
2022-11-24T17:01:31.920Z,5.00
2022-11-24T17:03:59.692Z,4.90
2022-11-24T17:06:27.556Z,4.90
2022-11-24T17:08:55.787Z,4.90
2022-11-24T17:11:28.269Z,4.90
2022-11-24T17:13:57.419Z,4.90
2022-11-24T17:16:27.891Z,4.90
2022-11-24T17:18:59.775Z,4.90
2022-11-24T17:21:28.135Z,4.80
2022-11-24T17:23:59.891Z,4.80
2022-11-24T17:26:29.949Z,4.80
2022-11-24T17:28:59.889Z,4.70
2022-11-24T17:31:34.223Z,4.60
2022-11-24T17:34:03.350Z,4.60
2022-11-24T17:36:32.885Z,4.60
2022-11-24T17:39:00.977Z,4.60
2022-11-24T17:41:30.153Z,4.50
2022-11-24T17:44:00.196Z,4.50
2022-11-24T17:46:28.712Z,4.50
2022-11-24T17:48:56.567Z,4.50
2022-11-24T17:51:25.682Z,4.50
2022-11-24T17:53:55.954Z,4.50
2022-11-24T17:56:27.515Z,4.50
2022-11-24T17:58:57.208Z,4.50
2022-11-24T18:01:25.649Z,4.50
2022-11-24T18:03:53.863Z,4.50
2022-11-24T18:06:23.884Z,4.50
2022-11-24T18:08:52.008Z,4.50
2022-11-24T18:11:25.935Z,4.40
2022-11-24T18:14:00.568Z,4.40
2022-11-24T18:16:34.184Z,4.40
2022-11-24T18:19:11.314Z,4.40
2022-11-24T18:21:40.627Z,4.30
2022-11-24T18:24:11.844Z,4.30
2022-11-24T18:26:42.286Z,4.40
2022-11-24T18:29:10.868Z,4.40
2022-11-24T18:31:40.774Z,4.50
2022-11-24T18:34:08.195Z,4.60
2022-11-24T18:36:36.041Z,4.60
2022-11-24T18:39:05.795Z,4.70
2022-11-24T18:41:34.021Z,4.80
2022-11-24T18:44:01.524Z,4.80
2022-11-24T18:46:31.256Z,4.90
2022-11-24T18:48:59.736Z,5.00
2022-11-24T18:51:29.969Z,5.10
2022-11-24T18:53:59.888Z,5.10
2022-11-24T18:56:27.309Z,5.20
2022-11-24T18:58:55.821Z,5.20
2022-11-24T19:01:26.088Z,5.30
2022-11-24T19:03:55.816Z,5.30
2022-11-24T19:06:31.675Z,5.30
2022-11-24T19:09:04.234Z,5.30
2022-11-24T19:11:34.617Z,5.30
2022-11-24T19:14:06.685Z,5.30
2022-11-24T19:16:35.434Z,5.30
2022-11-24T19:19:02.911Z,5.30
2022-11-24T19:21:34.738Z,5.40
2022-11-24T19:24:12.690Z,5.40
2022-11-24T19:26:42.930Z,5.40
2022-11-24T19:29:10.303Z,5.40
2022-11-24T19:31:38.849Z,5.40
2022-11-24T19:34:06.562Z,5.40
2022-11-24T19:36:37.079Z,5.50
2022-11-24T19:39:06.841Z,5.60
2022-11-24T19:41:34.747Z,5.60
2022-11-24T19:44:02.024Z,5.60
2022-11-24T19:46:30.034Z,5.60
2022-11-24T19:49:01.496Z,5.60
2022-11-24T19:51:39.396Z,5.70
2022-11-24T19:54:08.256Z,5.70
2022-11-24T19:56:36.948Z,5.60
2022-11-24T19:59:09.779Z,5.60
2022-11-24T20:01:40.105Z,5.60
2022-11-24T20:04:10.763Z,5.60
2022-11-24T20:06:40.947Z,5.60
2022-11-24T20:09:10.921Z,5.60
2022-11-24T20:11:38.991Z,5.60
2022-11-24T20:14:12.113Z,5.60
2022-11-24T20:16:40.698Z,5.50
2022-11-24T20:19:11.249Z,5.60
2022-11-24T20:21:42.794Z,5.60
2022-11-24T20:24:19.516Z,5.60
2022-11-24T20:26:53.319Z,5.60
2022-11-24T20:29:20.835Z,5.60
2022-11-24T20:31:53.251Z,5.60
2022-11-24T20:34:21.162Z,5.60
2022-11-24T20:36:49.481Z,5.60
2022-11-24T20:39:22.690Z,5.60
2022-11-24T20:41:50.203Z,5.70
2022-11-24T20:44:19.133Z,5.60
2022-11-24T20:46:47.039Z,5.70
2022-11-24T20:49:19.686Z,5.70
2022-11-24T20:51:52.162Z,5.70
2022-11-24T20:54:19.305Z,5.70
2022-11-24T20:56:47.854Z,5.80
2022-11-24T20:59:20.885Z,5.80
2022-11-24T21:01:49.395Z,5.80
2022-11-24T21:04:20.005Z,5.80
2022-11-24T21:06:47.836Z,5.80
2022-11-24T21:09:15.587Z,5.80
2022-11-24T21:11:43.269Z,5.80
2022-11-24T21:14:10.861Z,5.80
2022-11-24T21:16:40.486Z,5.80
2022-11-24T21:19:11.183Z,5.80
2022-11-24T21:21:39.841Z,5.80
2022-11-24T21:24:13.419Z,5.80
2022-11-24T21:26:42.470Z,5.80
2022-11-24T21:29:12.013Z,5.80
2022-11-24T21:31:39.930Z,5.80
2022-11-24T21:34:07.918Z,5.70
2022-11-24T21:36:37.956Z,5.70
2022-11-24T21:39:05.220Z,5.80
2022-11-24T21:41:33.515Z,5.80
2022-11-24T21:44:01.057Z,5.80
2022-11-24T21:46:30.056Z,5.80
2022-11-24T21:48:57.217Z,5.80
2022-11-24T21:51:28.699Z,5.80
2022-11-24T21:53:55.885Z,5.80
2022-11-24T21:56:25.720Z,5.80
2022-11-24T21:58:55.163Z,5.80
2022-11-24T22:01:27.412Z,5.80
2022-11-24T22:03:55.289Z,5.80
2022-11-24T22:06:23.324Z,5.80
2022-11-24T22:08:52.608Z,5.90
2022-11-24T22:11:22.697Z,5.90
2022-11-24T22:13:50.926Z,5.90
2022-11-24T22:16:23.420Z,6.00
2022-11-24T22:18:51.017Z,6.00
2022-11-24T22:21:23.213Z,6.00
2022-11-24T22:23:55.810Z,6.00
2022-11-24T22:26:24.337Z,6.10
2022-11-24T22:28:55.681Z,6.10
2022-11-24T22:31:33.062Z,6.20
2022-11-24T22:34:00.982Z,6.40
2022-11-24T22:36:29.964Z,6.40
2022-11-24T22:39:02.221Z,6.40
2022-11-24T22:41:30.936Z,6.40
2022-11-24T22:43:58.141Z,6.40
2022-11-24T22:46:27.601Z,6.30
2022-11-24T22:48:55.348Z,6.20
2022-11-24T22:51:27.931Z,6.20
2022-11-24T22:53:59.941Z,6.20
2022-11-24T22:56:27.821Z,6.20
2022-11-24T22:58:55.168Z,6.20
2022-11-24T23:01:26.780Z,6.20
2022-11-24T23:03:54.720Z,6.20
2022-11-24T23:06:27.600Z,6.20
2022-11-24T23:08:56.378Z,6.20
2022-11-24T23:11:33.844Z,6.10
2022-11-24T23:14:04.790Z,6.10
2022-11-24T23:16:32.495Z,6.10
2022-11-24T23:18:59.602Z,6.10
2022-11-24T23:21:29.684Z,6.10
2022-11-24T23:23:58.486Z,6.10
2022-11-24T23:26:28.568Z,6.10
2022-11-24T23:28:55.749Z,6.10
2022-11-24T23:31:25.495Z,6.00
2022-11-24T23:33:58.072Z,6.00
2022-11-24T23:36:27.782Z,6.00
2022-11-24T23:38:54.831Z,6.00
2022-11-24T23:41:24.943Z,5.90
2022-11-24T23:43:52.587Z,5.90
2022-11-24T23:46:24.197Z,5.80
2022-11-24T23:48:56.194Z,5.80
2022-11-24T23:51:28.753Z,5.80
2022-11-24T23:53:59.512Z,5.70
2022-11-24T23:56:31.884Z,5.70
2022-11-24T23:59:00.115Z,5.70
